Terminal Aerodrome Forecast
Issued by NWS

Home | Current Version | Previous Version | Text Only | Print | Product List | Glossary On
Versions: 1 2 3 4 5 6 7 8 9 10 11 12 13 14 15 16 17 18 19 20 21 22 23 24 25 26 27 28 29 30 31 32 33 34 35 36
886
FTUS41 KPBZ 260540
TAFLBE
TAF
KLBE 260540Z 2606/2706 16008KT 6SM -RA OVC045 WS020/22040KT
     FM260800 16008KT 3SM -RA OVC025 WS020/22040KT
     FM261200 18010KT 3SM -SHRA OVC015
     FM261500 19012G22KT 6SM -SHRA OVC015
     FM261700 28015G25KT 6SM -SHRA OVC010
     FM270000 29016G25KT P6SM VCSH BKN050=

USA.gov is the U.S. government's official web portal to all federal, state and local government web resources and services.